createdAt,value
2017-11-22T00:01:37.001Z,19.13
2017-11-22T00:04:05.377Z,22.70
2017-11-22T00:06:33.783Z,26.17
2017-11-22T00:09:02.180Z,25.40
2017-11-22T00:11:30.561Z,29.00
2017-11-22T00:13:59.141Z,32.43
2017-11-22T00:16:28.294Z,37.50
2017-11-22T00:18:56.670Z,36.97
2017-11-22T00:21:25.102Z,37.40
2017-11-22T00:23:54.220Z,37.67
2017-11-22T00:26:23.368Z,38.53
2017-11-22T00:28:51.817Z,38.17
2017-11-22T00:31:20.215Z,40.33
2017-11-22T00:33:48.597Z,41.83
2017-11-22T00:36:17.100Z,39.73
2017-11-22T00:38:45.485Z,42.73
2017-11-22T00:41:13.872Z,40.27
2017-11-22T00:43:43.077Z,43.83
2017-11-22T00:46:11.465Z,45.90
2017-11-22T00:48:40.622Z,43.40
2017-11-22T00:51:09.038Z,43.50
2017-11-22T00:53:38.189Z,46.50
2017-11-22T00:56:06.572Z,43.73
2017-11-22T00:58:35.207Z,43.07
2017-11-22T01:01:04.349Z,42.20
2017-11-22T01:03:32.729Z,44.70
2017-11-22T01:06:01.151Z,43.20
2017-11-22T01:08:30.329Z,43.37
2017-11-22T01:10:58.733Z,43.80
2017-11-22T01:13:27.157Z,41.40
2017-11-22T01:15:55.544Z,44.20
2017-11-22T01:18:23.964Z,41.33
2017-11-22T01:20:52.552Z,42.93
2017-11-22T01:23:20.951Z,40.77
2017-11-22T01:25:50.105Z,41.50
2017-11-22T01:28:19.019Z,40.00
2017-11-22T01:30:47.405Z,38.73
2017-11-22T01:33:15.795Z,40.23
2017-11-22T01:35:44.251Z,38.40
2017-11-22T01:38:12.635Z,37.13
2017-11-22T01:40:41.013Z,38.07
2017-11-22T01:43:09.569Z,38.67
2017-11-22T01:45:37.971Z,38.00
2017-11-22T01:48:06.336Z,40.60
2017-11-22T01:50:34.760Z,40.70
2017-11-22T01:53:03.903Z,41.30
2017-11-22T01:55:32.308Z,40.30
2017-11-22T01:58:00.716Z,41.03
2017-11-22T02:00:46.764Z,41.80
2017-11-22T02:03:19.175Z,42.97
2017-11-22T02:05:48.329Z,42.50
2017-11-22T02:08:16.742Z,42.37
2017-11-22T02:10:45.160Z,43.00
2017-11-22T02:13:13.569Z,40.10
2017-11-22T02:15:41.942Z,39.90
2017-11-22T02:18:10.356Z,41.57
2017-11-22T02:20:38.731Z,41.20
2017-11-22T02:23:07.128Z,41.90
2017-11-22T02:25:36.092Z,39.53
2017-11-22T02:28:04.484Z,40.33
2017-11-22T02:30:33.382Z,34.30
2017-11-22T02:33:01.805Z,33.73
2017-11-22T02:35:30.185Z,33.50
2017-11-22T02:37:58.575Z,30.77
2017-11-22T02:40:26.994Z,30.77
2017-11-22T02:42:55.384Z,30.80
2017-11-22T02:45:23.795Z,28.17
2017-11-22T02:47:52.325Z,26.93
2017-11-22T02:50:20.714Z,25.50
2017-11-22T02:52:49.109Z,26.33
2017-11-22T02:55:17.516Z,25.97
2017-11-22T02:57:46.661Z,26.03
2017-11-22T03:00:15.040Z,23.90
2017-11-22T03:02:43.436Z,20.93
2017-11-22T03:05:11.808Z,22.20
2017-11-22T03:07:40.202Z,20.97
2017-11-22T03:10:09.284Z,20.13
2017-11-22T03:12:37.666Z,20.23
2017-11-22T03:15:06.028Z,20.33
2017-11-22T03:17:34.435Z,19.67
2017-11-22T03:20:03.592Z,19.00
2017-11-22T03:22:31.969Z,19.90
2017-11-22T03:25:00.392Z,19.57
2017-11-22T03:27:28.776Z,19.00
2017-11-22T03:29:57.157Z,17.90
2017-11-22T03:32:26.714Z,16.67
2017-11-22T03:34:55.095Z,17.17
2017-11-22T03:37:23.494Z,16.90
2017-11-22T03:39:52.827Z,19.10
2017-11-22T03:42:21.781Z,17.77
2017-11-22T03:44:50.166Z,17.10
2017-11-22T03:47:18.604Z,18.13
2017-11-22T03:49:53.041Z,17.60
2017-11-22T03:52:27.362Z,17.00
2017-11-22T03:54:55.971Z,17.33
2017-11-22T03:57:24.344Z,17.53
2017-11-22T03:59:52.985Z,18.63
2017-11-22T04:02:25.825Z,16.00
2017-11-22T04:04:54.593Z,17.50
2017-11-22T04:07:22.981Z,18.30
2017-11-22T04:09:51.373Z,18.30
2017-11-22T04:12:20.353Z,18.27
2017-11-22T04:14:48.743Z,18.27
2017-11-22T04:17:17.595Z,17.93
2017-11-22T04:19:51.683Z,19.17
2017-11-22T04:22:20.842Z,19.37
2017-11-22T04:24:49.241Z,17.83
2017-11-22T04:27:17.662Z,19.20
2017-11-22T04:29:46.044Z,20.40
2017-11-22T04:32:14.457Z,19.57
2017-11-22T04:34:42.932Z,20.43
2017-11-22T04:37:11.311Z,19.33
2017-11-22T04:39:39.707Z,20.17
2017-11-22T04:42:08.121Z,19.33
2017-11-22T04:44:36.503Z,20.93
2017-11-22T04:47:05.654Z,21.93
2017-11-22T04:49:34.108Z,22.13
2017-11-22T04:52:02.505Z,22.10
2017-11-22T04:54:31.103Z,24.10
2017-11-22T04:56:59.664Z,23.53
2017-11-22T04:59:28.040Z,22.10
2017-11-22T05:01:56.417Z,24.37
2017-11-22T05:04:24.850Z,25.53
2017-11-22T05:06:53.229Z,25.53
2017-11-22T05:09:21.610Z,27.50
2017-11-22T05:11:50.081Z,27.73
2017-11-22T05:14:18.470Z,28.50
2017-11-22T05:16:46.856Z,27.50
2017-11-22T05:19:15.347Z,29.93
2017-11-22T05:21:43.725Z,28.83
2017-11-22T05:24:12.873Z,29.57
2017-11-22T05:26:41.302Z,30.37
2017-11-22T05:29:10.453Z,31.13
2017-11-22T05:31:39.803Z,32.60
2017-11-22T05:34:08.999Z,31.67
2017-11-22T05:36:38.146Z,31.23
2017-11-22T05:39:06.530Z,29.83
2017-11-22T05:41:35.006Z,31.07
2017-11-22T05:44:03.381Z,29.20
2017-11-22T05:46:31.757Z,28.50
2017-11-22T05:49:00.192Z,28.13
2017-11-22T05:51:29.144Z,26.97
2017-11-22T05:53:57.514Z,27.30
2017-11-22T05:56:25.929Z,26.67
2017-11-22T05:58:54.320Z,27.13
2017-11-22T06:01:22.704Z,29.00
2017-11-22T06:03:51.430Z,26.27
2017-11-22T06:06:19.822Z,26.57
2017-11-22T06:08:48.223Z,27.10
2017-11-22T06:11:16.656Z,26.90
2017-11-22T06:13:45.051Z,27.30
2017-11-22T06:16:13.432Z,25.30
2017-11-22T06:18:41.837Z,26.67
2017-11-22T06:21:10.217Z,26.37
2017-11-22T06:23:39.087Z,24.07
2017-11-22T06:26:07.728Z,24.27
2017-11-22T06:28:36.111Z,24.10
2017-11-22T06:31:04.504Z,25.60
2017-11-22T06:33:35.970Z,24.53
2017-11-22T06:36:04.360Z,21.37
2017-11-22T06:38:32.738Z,23.90
2017-11-22T06:41:01.198Z,21.70
2017-11-22T06:43:29.572Z,23.60
2017-11-22T06:45:58.715Z,21.93
2017-11-22T06:48:28.135Z,21.90
2017-11-22T06:50:56.544Z,22.40
2017-11-22T06:53:24.928Z,21.20
2017-11-22T06:55:54.108Z,19.27
2017-11-22T06:58:22.504Z,20.90
2017-11-22T07:00:51.664Z,18.07
2017-11-22T07:03:25.484Z,20.00
2017-11-22T07:05:54.679Z,19.43
2017-11-22T07:08:23.086Z,19.80
2017-11-22T07:10:51.658Z,19.87
2017-11-22T07:13:20.044Z,19.10
2017-11-22T07:15:54.752Z,19.00
2017-11-22T07:18:23.140Z,18.07
2017-11-22T07:20:51.523Z,15.53
2017-11-22T07:23:20.734Z,16.33
2017-11-22T07:25:49.908Z,15.53
2017-11-22T07:28:18.297Z,17.80
2017-11-22T07:30:46.991Z,16.83
2017-11-22T07:33:16.409Z,15.00
2017-11-22T07:35:52.137Z,16.50
2017-11-22T07:38:20.514Z,15.17
2017-11-22T07:40:48.917Z,16.00
2017-11-22T07:43:17.361Z,15.20
2017-11-22T07:45:45.755Z,15.00
2017-11-22T07:48:16.122Z,15.80
2017-11-22T07:50:46.783Z,16.00
2017-11-22T07:53:15.173Z,16.23
2017-11-22T07:55:43.567Z,15.93
2017-11-22T07:58:12.064Z,16.20
2017-11-22T08:00:41.217Z,16.33
2017-11-22T08:03:09.616Z,16.00
2017-11-22T08:05:38.036Z,17.50
2017-11-22T08:08:06.428Z,16.63
2017-11-22T08:10:34.809Z,16.03
2017-11-22T08:13:04.908Z,17.33
2017-11-22T08:15:34.072Z,17.13
2017-11-22T08:18:02.484Z,17.83
2017-11-22T08:20:34.043Z,17.43
2017-11-22T08:23:03.213Z,17.53
2017-11-22T08:25:31.599Z,16.73
2017-11-22T08:28:00.026Z,17.67
2017-11-22T08:30:28.417Z,18.27
2017-11-22T08:32:57.061Z,18.10
2017-11-22T08:35:25.589Z,18.07
2017-11-22T08:37:54.905Z,17.87
2017-11-22T08:40:23.296Z,17.73
2017-11-22T08:42:57.147Z,18.07
2017-11-22T08:45:26.297Z,18.30
2017-11-22T08:47:54.726Z,18.30
2017-11-22T08:50:23.158Z,19.10
2017-11-22T08:52:51.552Z,18.53
2017-11-22T08:55:25.550Z,17.80
2017-11-22T08:57:59.445Z,17.90
2017-11-22T09:00:27.897Z,18.57
2017-11-22T09:02:59.093Z,16.63
2017-11-22T09:05:41.863Z,18.97
2017-11-22T09:08:10.256Z,16.93
2017-11-22T09:10:38.654Z,18.10
2017-11-22T09:13:07.299Z,17.07
2017-11-22T09:15:35.722Z,16.23
2017-11-22T09:18:07.136Z,15.97
2017-11-22T09:20:35.615Z,17.13
2017-11-22T09:23:04.032Z,17.03
2017-11-22T09:25:32.695Z,17.87
2017-11-22T09:28:01.102Z,15.63
2017-11-22T09:30:29.597Z,16.03
2017-11-22T09:32:58.912Z,17.70
2017-11-22T09:35:27.677Z,16.10
2017-11-22T09:37:56.061Z,16.80
2017-11-22T09:40:24.480Z,15.80
2017-11-22T09:42:53.735Z,17.13
2017-11-22T09:45:22.142Z,17.07
2017-11-22T09:47:50.579Z,16.53
2017-11-22T09:50:19.046Z,16.93
2017-11-22T09:52:47.434Z,17.80
2017-11-22T09:55:15.829Z,16.40
2017-11-22T09:57:45.434Z,16.93
2017-11-22T10:00:13.844Z,16.67
2017-11-22T10:02:42.269Z,16.40
2017-11-22T10:05:11.371Z,17.40
2017-11-22T10:08:59.877Z,17.93
2017-11-22T10:11:28.303Z,17.33
2017-11-22T10:13:56.693Z,19.57
2017-11-22T10:16:25.340Z,19.60
2017-11-22T10:18:54.720Z,19.73
2017-11-22T10:21:27.892Z,19.40
2017-11-22T10:23:56.313Z,19.03
2017-11-22T10:26:29.276Z,18.87
2017-11-22T10:29:18.493Z,20.37
2017-11-22T10:31:47.401Z,18.87
2017-11-22T10:34:17.991Z,20.40
2017-11-22T10:36:46.481Z,20.67
2017-11-22T10:39:14.866Z,20.07
2017-11-22T10:41:44.018Z,20.67
2017-11-22T10:44:12.456Z,20.23
2017-11-22T10:46:40.844Z,20.67
2017-11-22T10:49:09.233Z,21.33
2017-11-22T10:51:37.705Z,21.63
2017-11-22T10:54:06.126Z,21.30
2017-11-22T10:56:34.501Z,23.17
2017-11-22T10:59:03.089Z,22.57
2017-11-22T11:01:31.493Z,23.13
2017-11-22T11:04:00.294Z,21.37
2017-11-22T11:06:29.497Z,21.20
2017-11-22T11:08:57.882Z,22.03
2017-11-22T11:11:26.260Z,21.43
2017-11-22T11:13:54.708Z,20.83
2017-11-22T11:16:23.096Z,20.13
2017-11-22T11:18:51.735Z,20.27
2017-11-22T11:21:20.329Z,19.63
2017-11-22T11:23:48.756Z,20.47
2017-11-22T11:26:17.898Z,20.70
2017-11-22T11:28:46.314Z,19.37
2017-11-22T11:31:14.715Z,17.53
2017-11-22T11:33:43.648Z,17.90
2017-11-22T11:36:29.648Z,16.40
2017-11-22T11:38:58.032Z,16.07
2017-11-22T11:41:26.424Z,15.77
2017-11-22T11:43:55.122Z,15.63
2017-11-22T11:46:24.182Z,14.43
2017-11-22T11:48:52.588Z,14.47
2017-11-22T11:51:21.024Z,14.53
2017-11-22T11:53:49.445Z,15.60
2017-11-22T11:56:17.845Z,16.77
2017-11-22T11:58:46.463Z,14.63
2017-11-22T12:01:14.893Z,15.27
2017-11-22T12:03:44.113Z,15.93
2017-11-22T12:06:12.537Z,16.80
2017-11-22T12:08:40.916Z,17.70
2017-11-22T12:11:12.091Z,16.77
2017-11-22T12:13:40.521Z,15.33
2017-11-22T12:16:09.668Z,17.80
2017-11-22T12:18:38.072Z,17.70
2017-11-22T12:21:06.640Z,17.70
2017-11-22T12:23:35.852Z,19.57
2017-11-22T12:26:04.260Z,19.47
2017-11-22T12:28:32.692Z,20.07
2017-11-22T12:31:01.084Z,20.90
2017-11-22T12:33:29.470Z,20.37
2017-11-22T12:35:57.917Z,20.73
2017-11-22T12:38:26.428Z,20.07
2017-11-22T12:40:54.800Z,19.47
2017-11-22T12:43:23.422Z,21.30
2017-11-22T12:45:51.825Z,20.90
2017-11-22T12:48:20.249Z,20.40
2017-11-22T12:50:48.680Z,22.10
2017-11-22T12:53:17.065Z,21.47
2017-11-22T12:55:45.446Z,20.47
2017-11-22T12:58:13.855Z,21.90
2017-11-22T13:00:42.277Z,21.80
2017-11-22T13:03:11.426Z,21.70
2017-11-22T13:05:39.955Z,22.30
2017-11-22T13:08:08.347Z,23.90
2017-11-22T13:10:42.962Z,23.37
2017-11-22T13:13:12.120Z,21.50
2017-11-22T13:15:40.503Z,23.43
2017-11-22T13:18:08.936Z,24.13
2017-11-22T13:20:37.321Z,24.97
2017-11-22T13:23:05.709Z,23.60
2017-11-22T13:25:34.377Z,22.70
2017-11-22T13:28:03.519Z,22.30
2017-11-22T13:30:31.930Z,22.53
2017-11-22T13:33:00.369Z,21.27
2017-11-22T13:35:28.757Z,22.20
2017-11-22T13:37:57.149Z,20.83
2017-11-22T13:40:25.629Z,20.30
2017-11-22T13:42:54.032Z,20.70
2017-11-22T13:45:23.347Z,22.80
2017-11-22T13:47:53.876Z,20.07
2017-11-22T13:50:23.444Z,20.10
2017-11-22T13:52:51.868Z,20.70
2017-11-22T13:55:21.064Z,20.63
2017-11-22T13:57:50.207Z,19.53
2017-11-22T14:00:18.589Z,19.53
2017-11-22T14:02:47.169Z,19.40
2017-11-22T14:05:15.565Z,19.40
2017-11-22T14:07:44.776Z,19.33
2017-11-22T14:10:13.657Z,18.47
2017-11-22T14:12:42.039Z,19.37
2017-11-22T14:15:10.420Z,20.53
2017-11-22T14:17:38.832Z,18.77
2017-11-22T14:20:07.225Z,19.30
2017-11-22T14:22:35.603Z,18.93
2017-11-22T14:25:04.053Z,17.57
2017-11-22T14:27:32.438Z,18.43
2017-11-22T14:30:00.841Z,18.63
2017-11-22T14:32:30.599Z,19.50
2017-11-22T14:34:58.988Z,18.13
2017-11-22T14:37:27.553Z,18.53
2017-11-22T14:39:55.965Z,19.10
2017-11-22T14:42:24.364Z,20.03
2017-11-22T14:44:53.509Z,19.63
2017-11-22T14:47:21.978Z,20.17
2017-11-22T14:49:51.324Z,20.27
2017-11-22T14:52:19.791Z,20.77
2017-11-22T14:54:48.278Z,21.57
2017-11-22T14:57:16.717Z,24.30
2017-11-22T14:59:45.094Z,21.53
2017-11-22T15:02:13.542Z,22.50
2017-11-22T15:04:42.994Z,23.33
2017-11-22T15:07:11.402Z,21.13
2017-11-22T15:09:39.871Z,21.77
2017-11-22T15:12:08.273Z,22.37
2017-11-22T15:14:36.710Z,22.87
2017-11-22T15:17:05.302Z,21.40
2017-11-22T15:19:33.717Z,22.50
2017-11-22T15:22:02.129Z,22.03
2017-11-22T15:24:31.314Z,23.60
2017-11-22T15:26:59.706Z,23.27
2017-11-22T15:29:28.917Z,22.97
2017-11-22T15:31:57.362Z,21.70
2017-11-22T15:34:25.772Z,20.87
2017-11-22T15:36:54.153Z,21.63
2017-11-22T15:39:22.632Z,22.30
2017-11-22T15:41:51.031Z,21.83
2017-11-22T15:44:19.436Z,21.50
2017-11-22T15:46:47.870Z,21.23
2017-11-22T15:49:16.299Z,21.00
2017-11-22T15:51:44.679Z,21.03
2017-11-22T15:54:13.180Z,22.23
2017-11-22T15:56:41.582Z,21.80
2017-11-22T15:59:09.957Z,22.67
2017-11-22T16:01:39.218Z,21.00
2017-11-22T16:04:07.621Z,21.73
2017-11-22T16:06:36.035Z,23.17
2017-11-22T16:09:04.472Z,21.37
2017-11-22T16:11:32.866Z,21.47
2017-11-22T16:14:01.298Z,21.90
2017-11-22T16:16:29.714Z,22.03
2017-11-22T16:18:58.112Z,21.90
2017-11-22T16:21:26.500Z,22.20
2017-11-22T16:23:55.852Z,21.67
2017-11-22T16:26:24.996Z,20.80
2017-11-22T16:28:54.158Z,22.30
2017-11-22T16:31:22.595Z,24.00
2017-11-22T16:33:51.002Z,22.43
2017-11-22T16:36:19.773Z,20.37
2017-11-22T16:38:48.205Z,21.97
2017-11-22T16:41:16.646Z,20.40
2017-11-22T16:43:45.057Z,21.17
2017-11-22T16:46:13.614Z,21.53
2017-11-22T16:48:42.777Z,21.33
2017-11-22T16:51:11.190Z,19.93
2017-11-22T16:53:39.648Z,20.70
2017-11-22T16:56:08.071Z,20.17
2017-11-22T16:58:37.123Z,21.27
2017-11-22T17:01:05.547Z,20.50
2017-11-22T17:03:33.982Z,19.97
2017-11-22T17:06:03.144Z,19.97
2017-11-22T17:08:32.134Z,20.60
2017-11-22T17:11:00.589Z,20.67
2017-11-22T17:13:29.001Z,20.33
2017-11-22T17:15:57.450Z,19.97
2017-11-22T17:18:25.874Z,19.97
2017-11-22T17:20:55.037Z,19.73
2017-11-22T17:23:23.461Z,20.30
2017-11-22T17:25:53.623Z,21.30
2017-11-22T17:28:22.051Z,21.80
2017-11-22T17:30:50.733Z,20.57
2017-11-22T17:33:19.926Z,21.23
2017-11-22T17:35:48.353Z,20.97
2017-11-22T17:38:16.786Z,21.87
2017-11-22T17:40:45.172Z,21.83
2017-11-22T17:43:13.662Z,22.77
2017-11-22T17:45:42.970Z,22.90
2017-11-22T17:48:12.133Z,21.10
2017-11-22T17:50:40.585Z,20.73
2017-11-22T17:53:09.153Z,23.03
2017-11-22T17:55:37.582Z,20.70
2017-11-22T17:58:06.753Z,22.00
2017-11-22T18:00:35.257Z,21.27
2017-11-22T18:03:03.678Z,20.90
2017-11-22T18:05:32.066Z,20.07
2017-11-22T18:08:00.481Z,20.70
2017-11-22T18:10:28.869Z,20.30
2017-11-22T18:12:57.273Z,21.87
2017-11-22T18:15:25.790Z,21.40
2017-11-22T18:17:54.185Z,23.03
2017-11-22T18:20:22.558Z,20.87
2017-11-22T18:22:51.906Z,20.27
2017-11-22T18:25:20.347Z,20.90
2017-11-22T18:27:48.720Z,19.80
2017-11-22T18:30:17.377Z,20.17
2017-11-22T18:32:46.526Z,19.43
2017-11-22T18:35:14.960Z,20.27
2017-11-22T18:37:44.241Z,20.23
2017-11-22T18:40:12.638Z,19.80
2017-11-22T18:42:41.018Z,19.60
2017-11-22T18:45:10.626Z,18.90
2017-11-22T18:47:39.022Z,18.00
2017-11-22T18:50:07.413Z,19.53
2017-11-22T18:52:35.829Z,18.03
2017-11-22T18:55:04.213Z,19.70
2017-11-22T18:57:32.602Z,18.07
2017-11-22T19:00:01.094Z,17.80
2017-11-22T19:02:29.496Z,19.13
2017-11-22T19:04:58.678Z,17.50
2017-11-22T19:07:27.125Z,18.43
2017-11-22T19:09:55.606Z,17.57
2017-11-22T19:12:24.069Z,16.80
2017-11-22T19:14:52.554Z,16.20
2017-11-22T19:17:21.758Z,17.20
2017-11-22T19:19:50.283Z,15.63
2017-11-22T19:22:19.637Z,15.40
2017-11-22T19:24:48.057Z,14.60
2017-11-22T19:27:16.500Z,14.83
2017-11-22T19:29:45.048Z,13.47
2017-11-22T19:32:15.225Z,14.80
2017-11-22T19:34:44.553Z,14.77
2017-11-22T19:37:14.364Z,14.43
2017-11-22T19:39:43.943Z,13.03
2017-11-22T19:42:12.944Z,12.83
2017-11-22T19:44:41.653Z,13.73
2017-11-22T19:47:10.256Z,13.80
2017-11-22T19:49:39.420Z,13.67
2017-11-22T19:52:08.764Z,12.60
2017-11-22T19:54:37.254Z,13.90
2017-11-22T19:57:06.424Z,13.70
2017-11-22T19:59:35.011Z,13.10
2017-11-22T20:02:04.278Z,12.30
2017-11-22T20:04:33.839Z,13.47
2017-11-22T20:09:55.049Z,13.50
2017-11-22T20:12:25.924Z,13.00
2017-11-22T20:14:55.123Z,13.00
2017-11-22T20:17:23.614Z,12.83
2017-11-22T20:19:52.968Z,12.83
2017-11-22T20:22:22.165Z,13.50
2017-11-22T20:24:50.688Z,12.93
2017-11-22T20:27:20.603Z,12.20
2017-11-22T20:29:49.125Z,13.50
2017-11-22T20:32:17.642Z,12.60
2017-11-22T20:34:46.933Z,14.90
2017-11-22T20:37:16.505Z,13.23
2017-11-22T20:39:44.936Z,13.73
2017-11-22T20:42:13.675Z,14.57
2017-11-22T20:44:42.184Z,13.43
2017-11-22T20:47:10.644Z,14.07
2017-11-22T20:49:39.351Z,13.37
2017-11-22T20:52:07.847Z,13.20
2017-11-22T20:54:36.424Z,12.93
2017-11-22T20:57:05.720Z,12.90
2017-11-22T20:59:34.144Z,13.50
2017-11-22T21:02:02.573Z,13.70
2017-11-22T21:04:31.068Z,13.20
2017-11-22T21:07:00.344Z,13.10
2017-11-22T21:09:28.851Z,12.70
2017-11-22T21:11:58.435Z,13.70
2017-11-22T21:14:26.860Z,15.00
2017-11-22T21:16:56.127Z,13.93
2017-11-22T21:19:24.615Z,13.53
2017-11-22T21:21:54.198Z,14.33
2017-11-22T21:24:22.711Z,13.10
2017-11-22T21:26:51.177Z,12.67
2017-11-22T21:29:19.954Z,13.83
2017-11-22T21:31:48.429Z,13.63
2017-11-22T21:34:17.058Z,13.73
2017-11-22T21:36:45.503Z,14.23
2017-11-22T21:39:13.912Z,12.60
2017-11-22T21:41:42.392Z,13.83
2017-11-22T21:44:11.681Z,14.53
2017-11-22T21:46:40.182Z,13.57
2017-11-22T21:49:09.482Z,12.93
2017-11-22T21:51:37.972Z,14.40
2017-11-22T21:54:07.257Z,12.73
2017-11-22T21:56:36.630Z,14.27
2017-11-22T21:59:05.100Z,14.07
2017-11-22T22:01:33.619Z,14.27
2017-11-22T22:04:03.024Z,13.60
2017-11-22T22:06:31.605Z,14.27
2017-11-22T22:09:01.011Z,12.87
2017-11-22T22:11:30.386Z,13.77
2017-11-22T22:13:59.028Z,13.70
2017-11-22T22:16:27.591Z,12.80
2017-11-22T22:18:57.006Z,13.50
2017-11-22T22:21:27.002Z,13.00
2017-11-22T22:23:56.178Z,13.73
2017-11-22T22:26:24.617Z,12.07
2017-11-22T22:28:52.982Z,12.17
2017-11-22T22:31:21.372Z,13.35
2017-11-22T22:33:49.841Z,12.87
2017-11-22T22:36:18.989Z,13.43
2017-11-22T22:38:47.785Z,13.10
2017-11-22T22:41:16.342Z,13.17
2017-11-22T22:43:44.746Z,12.07
2017-11-22T22:46:13.143Z,11.73
2017-11-22T22:48:42.335Z,12.07
2017-11-22T22:51:10.738Z,11.30
2017-11-22T22:53:39.130Z,13.10
2017-11-22T22:56:07.652Z,10.50
2017-11-22T22:58:36.016Z,10.90
2017-11-22T23:01:04.413Z,10.80
2017-11-22T23:03:33.740Z,11.53
2017-11-22T23:06:02.140Z,12.17
2017-11-22T23:08:31.293Z,10.40
2017-11-22T23:10:59.748Z,9.20
2017-11-22T23:13:28.188Z,9.90
2017-11-22T23:15:56.566Z,9.20
2017-11-22T23:18:25.006Z,9.50
2017-11-22T23:20:53.389Z,9.50
2017-11-22T23:23:22.077Z,9.13
2017-11-22T23:25:50.668Z,9.13
2017-11-22T23:28:19.086Z,9.20
2017-11-22T23:30:48.238Z,8.60
2017-11-22T23:33:16.677Z,9.80
2017-11-22T23:35:45.844Z,8.37
2017-11-22T23:38:14.219Z,7.90
2017-11-22T23:40:42.654Z,8.20
2017-11-22T23:43:11.038Z,8.63
2017-11-22T23:45:39.407Z,8.20
2017-11-22T23:48:08.068Z,8.67
2017-11-22T23:50:37.215Z,8.60
2017-11-22T23:53:05.592Z,8.03
2017-11-22T23:55:34.902Z,7.57
2017-11-22T23:58:03.300Z,8.27
